sensor_id;sensor_type;location;lat;lon;timestamp;P1;durP1;ratioP1;P2;durP2;ratioP2
71196;SDS011;58918;51.652;4.864;2022-10-13T00:02:22;6.90;;;3.67;;
71196;SDS011;58918;51.652;4.864;2022-10-13T00:04:49;8.30;;;3.22;;
71196;SDS011;58918;51.652;4.864;2022-10-13T00:07:16;8.43;;;3.38;;
71196;SDS011;58918;51.652;4.864;2022-10-13T00:09:43;9.20;;;3.05;;
71196;SDS011;58918;51.652;4.864;2022-10-13T00:12:10;7.53;;;3.30;;
71196;SDS011;58918;51.652;4.864;2022-10-13T00:14:37;8.90;;;3.65;;
71196;SDS011;58918;51.652;4.864;2022-10-13T00:17:04;8.30;;;3.70;;
71196;SDS011;58918;51.652;4.864;2022-10-13T00:19:32;7.07;;;3.47;;
71196;SDS011;58918;51.652;4.864;2022-10-13T00:21:59;10.80;;;3.50;;
71196;SDS011;58918;51.652;4.864;2022-10-13T00:24:26;14.32;;;4.10;;
71196;SDS011;58918;51.652;4.864;2022-10-13T00:26:53;12.98;;;4.10;;
71196;SDS011;58918;51.652;4.864;2022-10-13T00:29:20;8.88;;;3.70;;
71196;SDS011;58918;51.652;4.864;2022-10-13T00:31:47;8.73;;;3.60;;
71196;SDS011;58918;51.652;4.864;2022-10-13T00:34:14;7.55;;;3.25;;
71196;SDS011;58918;51.652;4.864;2022-10-13T00:36:41;9.60;;;3.28;;
71196;SDS011;58918;51.652;4.864;2022-10-13T00:39:09;7.68;;;3.40;;
71196;SDS011;58918;51.652;4.864;2022-10-13T00:41:36;8.88;;;3.17;;
71196;SDS011;58918;51.652;4.864;2022-10-13T00:44:54;8.00;;;3.13;;
71196;SDS011;58918;51.652;4.864;2022-10-13T00:46:53;9.80;;;3.38;;
71196;SDS011;58918;51.652;4.864;2022-10-13T00:49:20;8.70;;;3.53;;
71196;SDS011;58918;51.652;4.864;2022-10-13T00:51:47;8.75;;;3.30;;
71196;SDS011;58918;51.652;4.864;2022-10-13T00:54:19;10.32;;;3.30;;
71196;SDS011;58918;51.652;4.864;2022-10-13T00:56:50;8.18;;;3.17;;
71196;SDS011;58918;51.652;4.864;2022-10-13T00:59:19;8.35;;;3.55;;
71196;SDS011;58918;51.652;4.864;2022-10-13T01:01:50;7.55;;;3.30;;
71196;SDS011;58918;51.652;4.864;2022-10-13T01:04:18;7.53;;;3.63;;
71196;SDS011;58918;51.652;4.864;2022-10-13T01:06:47;11.13;;;3.40;;
71196;SDS011;58918;51.652;4.864;2022-10-13T01:09:15;7.38;;;3.88;;
71196;SDS011;58918;51.652;4.864;2022-10-13T01:14:20;7.65;;;3.20;;
71196;SDS011;58918;51.652;4.864;2022-10-13T01:17:03;7.22;;;3.00;;
71196;SDS011;58918;51.652;4.864;2022-10-13T01:24:40;7.57;;;3.22;;
71196;SDS011;58918;51.652;4.864;2022-10-13T01:27:18;9.32;;;3.17;;
71196;SDS011;58918;51.652;4.864;2022-10-13T01:32:49;7.68;;;3.40;;
71196;SDS011;58918;51.652;4.864;2022-10-13T01:40:18;7.32;;;4.10;;
71196;SDS011;58918;51.652;4.864;2022-10-13T01:43:00;10.63;;;3.30;;
71196;SDS011;58918;51.652;4.864;2022-10-13T01:45:31;7.07;;;3.05;;
71196;SDS011;58918;51.652;4.864;2022-10-13T01:48:01;7.05;;;3.35;;
71196;SDS011;58918;51.652;4.864;2022-10-13T01:50:31;8.63;;;3.67;;
71196;SDS011;58918;51.652;4.864;2022-10-13T01:52:59;10.82;;;3.80;;
71196;SDS011;58918;51.652;4.864;2022-10-13T01:55:28;8.18;;;3.28;;
71196;SDS011;58918;51.652;4.864;2022-10-13T01:57:56;7.85;;;2.95;;
71196;SDS011;58918;51.652;4.864;2022-10-13T02:00:24;6.40;;;3.50;;
71196;SDS011;58918;51.652;4.864;2022-10-13T02:03:05;6.18;;;3.03;;
71196;SDS011;58918;51.652;4.864;2022-10-13T02:05:45;6.97;;;3.40;;
71196;SDS011;58918;51.652;4.864;2022-10-13T02:10:58;7.43;;;2.83;;
71196;SDS011;58918;51.652;4.864;2022-10-13T02:13:27;9.55;;;3.10;;
71196;SDS011;58918;51.652;4.864;2022-10-13T02:15:56;9.07;;;3.25;;
71196;SDS011;58918;51.652;4.864;2022-10-13T02:18:25;8.55;;;3.33;;
71196;SDS011;58918;51.652;4.864;2022-10-13T02:20:53;8.48;;;4.13;;
71196;SDS011;58918;51.652;4.864;2022-10-13T02:23:21;9.93;;;3.50;;
71196;SDS011;58918;51.652;4.864;2022-10-13T02:25:48;7.40;;;2.97;;
71196;SDS011;58918;51.652;4.864;2022-10-13T02:28:16;9.20;;;2.88;;
71196;SDS011;58918;51.652;4.864;2022-10-13T02:30:44;11.00;;;3.20;;
71196;SDS011;58918;51.652;4.864;2022-10-13T02:33:12;10.68;;;3.15;;
71196;SDS011;58918;51.652;4.864;2022-10-13T02:35:41;6.70;;;2.63;;
71196;SDS011;58918;51.652;4.864;2022-10-13T02:40:36;6.28;;;3.10;;
71196;SDS011;58918;51.652;4.864;2022-10-13T02:43:03;8.60;;;3.08;;
71196;SDS011;58918;51.652;4.864;2022-10-13T02:45:30;9.27;;;3.28;;
71196;SDS011;58918;51.652;4.864;2022-10-13T02:47:57;7.93;;;3.00;;
71196;SDS011;58918;51.652;4.864;2022-10-13T02:50:25;7.72;;;3.70;;
71196;SDS011;58918;51.652;4.864;2022-10-13T02:52:52;5.90;;;2.85;;
71196;SDS011;58918;51.652;4.864;2022-10-13T02:55:19;5.97;;;2.92;;
71196;SDS011;58918;51.652;4.864;2022-10-13T02:57:46;6.63;;;2.80;;
71196;SDS011;58918;51.652;4.864;2022-10-13T03:00:13;7.78;;;2.85;;
71196;SDS011;58918;51.652;4.864;2022-10-13T03:02:41;11.02;;;3.47;;
71196;SDS011;58918;51.652;4.864;2022-10-13T03:05:08;7.32;;;2.78;;
71196;SDS011;58918;51.652;4.864;2022-10-13T03:07:36;8.55;;;3.50;;
71196;SDS011;58918;51.652;4.864;2022-10-13T03:10:03;7.78;;;3.00;;
71196;SDS011;58918;51.652;4.864;2022-10-13T03:12:30;7.43;;;2.88;;
71196;SDS011;58918;51.652;4.864;2022-10-13T03:14:58;6.90;;;2.80;;
71196;SDS011;58918;51.652;4.864;2022-10-13T03:17:25;11.80;;;3.50;;
71196;SDS011;58918;51.652;4.864;2022-10-13T03:19:52;6.55;;;2.80;;
71196;SDS011;58918;51.652;4.864;2022-10-13T03:22:19;8.38;;;3.03;;
71196;SDS011;58918;51.652;4.864;2022-10-13T03:24:47;10.70;;;3.03;;
71196;SDS011;58918;51.652;4.864;2022-10-13T03:27:14;8.25;;;2.83;;
71196;SDS011;58918;51.652;4.864;2022-10-13T03:29:42;7.00;;;2.97;;
71196;SDS011;58918;51.652;4.864;2022-10-13T03:32:09;9.27;;;3.42;;
71196;SDS011;58918;51.652;4.864;2022-10-13T03:34:36;9.30;;;3.25;;
71196;SDS011;58918;51.652;4.864;2022-10-13T03:37:03;7.82;;;3.05;;
71196;SDS011;58918;51.652;4.864;2022-10-13T03:39:30;7.55;;;3.00;;
71196;SDS011;58918;51.652;4.864;2022-10-13T03:41:57;8.13;;;3.08;;
71196;SDS011;58918;51.652;4.864;2022-10-13T03:44:24;9.70;;;3.13;;
71196;SDS011;58918;51.652;4.864;2022-10-13T03:46:51;6.57;;;3.08;;
71196;SDS011;58918;51.652;4.864;2022-10-13T03:49:18;7.85;;;2.85;;
71196;SDS011;58918;51.652;4.864;2022-10-13T03:51:46;9.43;;;4.18;;
71196;SDS011;58918;51.652;4.864;2022-10-13T03:54:13;10.57;;;3.42;;
71196;SDS011;58918;51.652;4.864;2022-10-13T03:56:40;7.60;;;2.90;;
71196;SDS011;58918;51.652;4.864;2022-10-13T03:59:09;7.32;;;2.97;;
71196;SDS011;58918;51.652;4.864;2022-10-13T04:01:37;8.65;;;3.03;;
71196;SDS011;58918;51.652;4.864;2022-10-13T04:04:05;14.80;;;3.00;;
71196;SDS011;58918;51.652;4.864;2022-10-13T04:06:33;9.77;;;2.97;;
71196;SDS011;58918;51.652;4.864;2022-10-13T04:09:00;9.40;;;3.40;;
71196;SDS011;58918;51.652;4.864;2022-10-13T04:11:27;10.30;;;2.83;;
71196;SDS011;58918;51.652;4.864;2022-10-13T04:13:55;8.40;;;3.33;;
71196;SDS011;58918;51.652;4.864;2022-10-13T04:16:23;9.05;;;2.95;;
71196;SDS011;58918;51.652;4.864;2022-10-13T04:18:53;7.35;;;3.15;;
71196;SDS011;58918;51.652;4.864;2022-10-13T04:21:21;6.55;;;2.90;;
71196;SDS011;58918;51.652;4.864;2022-10-13T04:23:48;8.55;;;2.80;;
71196;SDS011;58918;51.652;4.864;2022-10-13T04:26:17;10.57;;;3.08;;
71196;SDS011;58918;51.652;4.864;2022-10-13T04:28:48;9.35;;;3.13;;
71196;SDS011;58918;51.652;4.864;2022-10-13T04:31:16;8.88;;;3.15;;
71196;SDS011;58918;51.652;4.864;2022-10-13T04:33:43;14.85;;;4.28;;
71196;SDS011;58918;51.652;4.864;2022-10-13T04:36:11;7.15;;;2.85;;
71196;SDS011;58918;51.652;4.864;2022-10-13T04:38:39;8.38;;;3.30;;
71196;SDS011;58918;51.652;4.864;2022-10-13T04:41:07;8.43;;;3.47;;
71196;SDS011;58918;51.652;4.864;2022-10-13T04:43:34;12.10;;;3.08;;
71196;SDS011;58918;51.652;4.864;2022-10-13T04:46:02;8.23;;;3.10;;
71196;SDS011;58918;51.652;4.864;2022-10-13T04:48:29;9.80;;;3.80;;
71196;SDS011;58918;51.652;4.864;2022-10-13T04:51:01;15.88;;;3.33;;
71196;SDS011;58918;51.652;4.864;2022-10-13T04:53:28;14.75;;;3.20;;
71196;SDS011;58918;51.652;4.864;2022-10-13T04:55:56;17.83;;;3.70;;
71196;SDS011;58918;51.652;4.864;2022-10-13T04:58:26;12.00;;;3.45;;
71196;SDS011;58918;51.652;4.864;2022-10-13T05:00:53;9.70;;;3.30;;
71196;SDS011;58918;51.652;4.864;2022-10-13T05:03:20;10.15;;;2.72;;
71196;SDS011;58918;51.652;4.864;2022-10-13T05:05:47;10.82;;;3.05;;
71196;SDS011;58918;51.652;4.864;2022-10-13T05:08:14;6.25;;;2.25;;
71196;SDS011;58918;51.652;4.864;2022-10-13T05:10:42;6.45;;;2.38;;
71196;SDS011;58918;51.652;4.864;2022-10-13T05:13:09;7.90;;;2.67;;
71196;SDS011;58918;51.652;4.864;2022-10-13T05:15:37;6.60;;;2.83;;
71196;SDS011;58918;51.652;4.864;2022-10-13T05:18:04;11.40;;;3.20;;
71196;SDS011;58918;51.652;4.864;2022-10-13T05:20:31;6.72;;;2.60;;
71196;SDS011;58918;51.652;4.864;2022-10-13T05:22:59;10.57;;;3.05;;
71196;SDS011;58918;51.652;4.864;2022-10-13T05:25:26;7.07;;;2.60;;
71196;SDS011;58918;51.652;4.864;2022-10-13T05:27:58;8.05;;;2.65;;
71196;SDS011;58918;51.652;4.864;2022-10-13T05:30:26;6.75;;;2.25;;
71196;SDS011;58918;51.652;4.864;2022-10-13T05:32:53;7.30;;;2.47;;
71196;SDS011;58918;51.652;4.864;2022-10-13T05:35:20;6.68;;;2.42;;
71196;SDS011;58918;51.652;4.864;2022-10-13T05:37:47;8.98;;;2.20;;
71196;SDS011;58918;51.652;4.864;2022-10-13T05:40:14;7.10;;;2.47;;
71196;SDS011;58918;51.652;4.864;2022-10-13T05:42:41;8.82;;;2.20;;
71196;SDS011;58918;51.652;4.864;2022-10-13T05:45:09;5.82;;;2.10;;
71196;SDS011;58918;51.652;4.864;2022-10-13T05:47:36;6.38;;;2.03;;
71196;SDS011;58918;51.652;4.864;2022-10-13T05:50:03;7.30;;;2.35;;
71196;SDS011;58918;51.652;4.864;2022-10-13T05:52:31;5.45;;;2.22;;
71196;SDS011;58918;51.652;4.864;2022-10-13T05:54:59;4.82;;;1.77;;
71196;SDS011;58918;51.652;4.864;2022-10-13T05:57:30;6.05;;;1.90;;
71196;SDS011;58918;51.652;4.864;2022-10-13T06:02:26;6.82;;;1.92;;
71196;SDS011;58918;51.652;4.864;2022-10-13T06:04:55;4.35;;;1.85;;
71196;SDS011;58918;51.652;4.864;2022-10-13T06:07:23;17.55;;;2.78;;
71196;SDS011;58918;51.652;4.864;2022-10-13T06:09:50;3.95;;;1.65;;
71196;SDS011;58918;51.652;4.864;2022-10-13T06:12:17;6.28;;;1.95;;
71196;SDS011;58918;51.652;4.864;2022-10-13T06:14:45;6.40;;;1.95;;
71196;SDS011;58918;51.652;4.864;2022-10-13T06:17:12;5.32;;;1.42;;
71196;SDS011;58918;51.652;4.864;2022-10-13T06:19:39;5.60;;;2.10;;
71196;SDS011;58918;51.652;4.864;2022-10-13T06:22:07;6.38;;;1.92;;
71196;SDS011;58918;51.652;4.864;2022-10-13T06:24:34;5.03;;;1.88;;
71196;SDS011;58918;51.652;4.864;2022-10-13T06:27:02;4.70;;;1.75;;
71196;SDS011;58918;51.652;4.864;2022-10-13T06:29:29;4.22;;;1.50;;
71196;SDS011;58918;51.652;4.864;2022-10-13T06:31:58;6.53;;;1.85;;
71196;SDS011;58918;51.652;4.864;2022-10-13T06:34:25;6.18;;;1.70;;
71196;SDS011;58918;51.652;4.864;2022-10-13T06:36:52;4.43;;;1.77;;
71196;SDS011;58918;51.652;4.864;2022-10-13T06:39:19;4.63;;;1.65;;
71196;SDS011;58918;51.652;4.864;2022-10-13T06:41:46;4.47;;;1.35;;
71196;SDS011;58918;51.652;4.864;2022-10-13T06:44:13;5.05;;;1.45;;
71196;SDS011;58918;51.652;4.864;2022-10-13T06:46:40;3.67;;;1.20;;
71196;SDS011;58918;51.652;4.864;2022-10-13T06:49:08;6.72;;;1.65;;
71196;SDS011;58918;51.652;4.864;2022-10-13T06:51:35;4.18;;;1.67;;
71196;SDS011;58918;51.652;4.864;2022-10-13T06:54:02;3.97;;;1.40;;
71196;SDS011;58918;51.652;4.864;2022-10-13T06:56:29;3.42;;;1.33;;
71196;SDS011;58918;51.652;4.864;2022-10-13T06:58:56;3.80;;;1.45;;
71196;SDS011;58918;51.652;4.864;2022-10-13T07:01:24;5.82;;;1.98;;
71196;SDS011;58918;51.652;4.864;2022-10-13T07:03:51;10.93;;;1.58;;
71196;SDS011;58918;51.652;4.864;2022-10-13T07:06:18;4.28;;;1.60;;
71196;SDS011;58918;51.652;4.864;2022-10-13T07:08:45;3.85;;;1.48;;
71196;SDS011;58918;51.652;4.864;2022-10-13T07:11:13;3.70;;;1.50;;
71196;SDS011;58918;51.652;4.864;2022-10-13T07:13:42;4.57;;;1.60;;
71196;SDS011;58918;51.652;4.864;2022-10-13T07:16:12;4.68;;;1.60;;
71196;SDS011;58918;51.652;4.864;2022-10-13T07:18:40;4.68;;;1.35;;
71196;SDS011;58918;51.652;4.864;2022-10-13T07:21:07;5.00;;;1.70;;
71196;SDS011;58918;51.652;4.864;2022-10-13T07:23:34;4.45;;;1.40;;
71196;SDS011;58918;51.652;4.864;2022-10-13T07:26:04;3.95;;;1.30;;
71196;SDS011;58918;51.652;4.864;2022-10-13T07:28:32;6.72;;;1.30;;
71196;SDS011;58918;51.652;4.864;2022-10-13T07:30:59;5.95;;;1.77;;
71196;SDS011;58918;51.652;4.864;2022-10-13T07:33:26;4.43;;;1.88;;
71196;SDS011;58918;51.652;4.864;2022-10-13T07:35:54;5.38;;;1.80;;
71196;SDS011;58918;51.652;4.864;2022-10-13T07:38:24;5.53;;;2.00;;
71196;SDS011;58918;51.652;4.864;2022-10-13T07:40:51;4.72;;;1.52;;
71196;SDS011;58918;51.652;4.864;2022-10-13T07:43:18;5.20;;;1.85;;
71196;SDS011;58918;51.652;4.864;2022-10-13T07:45:45;8.43;;;2.40;;
71196;SDS011;58918;51.652;4.864;2022-10-13T07:48:12;7.60;;;2.08;;
71196;SDS011;58918;51.652;4.864;2022-10-13T07:50:40;7.07;;;2.08;;
71196;SDS011;58918;51.652;4.864;2022-10-13T07:53:07;6.55;;;2.08;;
71196;SDS011;58918;51.652;4.864;2022-10-13T07:55:34;7.00;;;2.28;;
71196;SDS011;58918;51.652;4.864;2022-10-13T07:58:02;5.00;;;2.08;;
71196;SDS011;58918;51.652;4.864;2022-10-13T08:00:29;5.45;;;1.90;;
71196;SDS011;58918;51.652;4.864;2022-10-13T08:02:56;5.95;;;1.92;;
71196;SDS011;58918;51.652;4.864;2022-10-13T08:05:24;6.50;;;1.98;;
71196;SDS011;58918;51.652;4.864;2022-10-13T08:07:51;6.00;;;2.35;;
71196;SDS011;58918;51.652;4.864;2022-10-13T08:10:23;9.40;;;2.58;;
71196;SDS011;58918;51.652;4.864;2022-10-13T08:12:50;5.20;;;1.90;;
71196;SDS011;58918;51.652;4.864;2022-10-13T08:15:17;6.03;;;2.47;;
71196;SDS011;58918;51.652;4.864;2022-10-13T08:17:45;7.68;;;1.75;;
71196;SDS011;58918;51.652;4.864;2022-10-13T08:20:13;5.88;;;2.42;;
71196;SDS011;58918;51.652;4.864;2022-10-13T08:22:40;6.03;;;2.17;;
71196;SDS011;58918;51.652;4.864;2022-10-13T08:25:08;5.38;;;2.30;;
71196;SDS011;58918;51.652;4.864;2022-10-13T08:27:35;5.00;;;2.05;;
71196;SDS011;58918;51.652;4.864;2022-10-13T08:30:16;7.38;;;2.30;;
71196;SDS011;58918;51.652;4.864;2022-10-13T08:32:43;5.95;;;2.20;;
71196;SDS011;58918;51.652;4.864;2022-10-13T08:35:10;5.15;;;2.28;;
71196;SDS011;58918;51.652;4.864;2022-10-13T08:37:39;6.57;;;2.50;;
71196;SDS011;58918;51.652;4.864;2022-10-13T08:40:06;5.97;;;2.47;;
71196;SDS011;58918;51.652;4.864;2022-10-13T08:42:37;9.85;;;2.65;;
71196;SDS011;58918;51.652;4.864;2022-10-13T08:45:09;6.03;;;2.17;;
71196;SDS011;58918;51.652;4.864;2022-10-13T08:48:02;6.25;;;2.45;;
71196;SDS011;58918;51.652;4.864;2022-10-13T08:50:32;7.93;;;2.40;;
71196;SDS011;58918;51.652;4.864;2022-10-13T08:55:55;5.03;;;2.30;;
71196;SDS011;58918;51.652;4.864;2022-10-13T08:58:25;6.35;;;2.63;;
71196;SDS011;58918;51.652;4.864;2022-10-13T09:03:24;6.20;;;2.33;;
71196;SDS011;58918;51.652;4.864;2022-10-13T09:08:40;6.13;;;2.38;;
71196;SDS011;58918;51.652;4.864;2022-10-13T09:11:10;6.88;;;2.97;;
71196;SDS011;58918;51.652;4.864;2022-10-13T09:13:37;6.18;;;2.70;;
71196;SDS011;58918;51.652;4.864;2022-10-13T09:16:05;8.00;;;2.55;;
71196;SDS011;58918;51.652;4.864;2022-10-13T09:18:33;5.85;;;2.38;;
71196;SDS011;58918;51.652;4.864;2022-10-13T09:23:48;9.73;;;2.63;;
71196;SDS011;58918;51.652;4.864;2022-10-13T09:26:17;6.85;;;2.55;;
71196;SDS011;58918;51.652;4.864;2022-10-13T09:28:45;6.40;;;2.78;;
71196;SDS011;58918;51.652;4.864;2022-10-13T09:31:25;6.85;;;2.60;;
71196;SDS011;58918;51.652;4.864;2022-10-13T09:33:58;9.13;;;2.67;;
71196;SDS011;58918;51.652;4.864;2022-10-13T09:36:27;5.63;;;2.67;;
71196;SDS011;58918;51.652;4.864;2022-10-13T09:39:09;9.77;;;3.22;;
71196;SDS011;58918;51.652;4.864;2022-10-13T09:41:37;8.57;;;3.38;;
71196;SDS011;58918;51.652;4.864;2022-10-13T09:44:28;5.70;;;2.53;;
71196;SDS011;58918;51.652;4.864;2022-10-13T09:52:01;8.98;;;2.80;;
71196;SDS011;58918;51.652;4.864;2022-10-13T09:56:56;6.55;;;2.95;;
71196;SDS011;58918;51.652;4.864;2022-10-13T09:59:35;8.70;;;3.17;;
71196;SDS011;58918;51.652;4.864;2022-10-13T10:02:40;7.35;;;2.65;;
71196;SDS011;58918;51.652;4.864;2022-10-13T10:05:00;8.00;;;2.63;;
71196;SDS011;58918;51.652;4.864;2022-10-13T10:07:31;7.63;;;2.67;;
71196;SDS011;58918;51.652;4.864;2022-10-13T10:09:59;8.43;;;2.97;;
71196;SDS011;58918;51.652;4.864;2022-10-13T10:12:28;6.50;;;2.92;;
71196;SDS011;58918;51.652;4.864;2022-10-13T10:14:56;7.63;;;2.50;;
71196;SDS011;58918;51.652;4.864;2022-10-13T10:20:08;7.05;;;2.80;;
71196;SDS011;58918;51.652;4.864;2022-10-13T10:22:43;8.95;;;2.58;;
71196;SDS011;58918;51.652;4.864;2022-10-13T10:27:41;8.90;;;2.97;;
71196;SDS011;58918;51.652;4.864;2022-10-13T10:30:17;9.02;;;2.90;;
71196;SDS011;58918;51.652;4.864;2022-10-13T10:32:55;7.13;;;2.75;;
71196;SDS011;58918;51.652;4.864;2022-10-13T10:35:39;5.70;;;2.50;;
71196;SDS011;58918;51.652;4.864;2022-10-13T10:40:52;6.60;;;2.60;;
71196;SDS011;58918;51.652;4.864;2022-10-13T10:45:49;5.35;;;2.42;;
71196;SDS011;58918;51.652;4.864;2022-10-13T10:48:17;6.65;;;2.65;;
71196;SDS011;58918;51.652;4.864;2022-10-13T10:50:45;7.45;;;2.67;;
71196;SDS011;58918;51.652;4.864;2022-10-13T11:00:47;5.88;;;3.13;;
71196;SDS011;58918;51.652;4.864;2022-10-13T11:08:27;7.40;;;2.95;;
71196;SDS011;58918;51.652;4.864;2022-10-13T11:18:55;8.18;;;3.17;;
71196;SDS011;58918;51.652;4.864;2022-10-13T11:21:24;11.20;;;3.45;;
71196;SDS011;58918;51.652;4.864;2022-10-13T11:23:51;10.18;;;3.30;;
71196;SDS011;58918;51.652;4.864;2022-10-13T11:28:50;8.70;;;3.40;;
71196;SDS011;58918;51.652;4.864;2022-10-13T11:34:00;7.40;;;3.50;;
71196;SDS011;58918;51.652;4.864;2022-10-13T11:42:10;7.68;;;3.08;;
71196;SDS011;58918;51.652;4.864;2022-10-13T11:47:24;9.02;;;3.50;;
71196;SDS011;58918;51.652;4.864;2022-10-13T11:52:41;6.25;;;3.03;;
71196;SDS011;58918;51.652;4.864;2022-10-13T11:55:11;13.10;;;3.28;;
71196;SDS011;58918;51.652;4.864;2022-10-13T12:00:12;8.32;;;3.25;;
71196;SDS011;58918;51.652;4.864;2022-10-13T12:02:46;8.65;;;3.55;;
71196;SDS011;58918;51.652;4.864;2022-10-13T12:05:18;9.13;;;3.45;;
71196;SDS011;58918;51.652;4.864;2022-10-13T12:07:46;7.60;;;3.58;;
71196;SDS011;58918;51.652;4.864;2022-10-13T12:12:46;8.13;;;3.42;;
71196;SDS011;58918;51.652;4.864;2022-10-13T12:18:00;10.32;;;3.40;;
71196;SDS011;58918;51.652;4.864;2022-10-13T12:20:29;8.65;;;3.88;;
71196;SDS011;58918;51.652;4.864;2022-10-13T12:22:56;7.45;;;3.58;;
71196;SDS011;58918;51.652;4.864;2022-10-13T12:25:28;8.70;;;3.35;;
71196;SDS011;58918;51.652;4.864;2022-10-13T12:27:56;7.43;;;3.50;;
71196;SDS011;58918;51.652;4.864;2022-10-13T12:30:25;12.98;;;3.85;;
71196;SDS011;58918;51.652;4.864;2022-10-13T12:37:50;8.13;;;3.60;;
71196;SDS011;58918;51.652;4.864;2022-10-13T12:40:18;8.30;;;3.05;;
71196;SDS011;58918;51.652;4.864;2022-10-13T12:42:45;8.35;;;3.55;;
71196;SDS011;58918;51.652;4.864;2022-10-13T12:45:20;9.65;;;3.80;;
71196;SDS011;58918;51.652;4.864;2022-10-13T12:47:50;10.10;;;3.38;;
71196;SDS011;58918;51.652;4.864;2022-10-13T12:52:51;10.75;;;3.30;;
71196;SDS011;58918;51.652;4.864;2022-10-13T12:55:19;9.48;;;3.75;;
71196;SDS011;58918;51.652;4.864;2022-10-13T12:57:50;6.70;;;3.10;;
71196;SDS011;58918;51.652;4.864;2022-10-13T13:02:51;8.70;;;3.55;;
71196;SDS011;58918;51.652;4.864;2022-10-13T13:07:56;5.95;;;2.85;;
71196;SDS011;58918;51.652;4.864;2022-10-13T13:10:24;9.00;;;3.20;;
71196;SDS011;58918;51.652;4.864;2022-10-13T13:12:51;10.60;;;3.58;;
71196;SDS011;58918;51.652;4.864;2022-10-13T13:17:53;7.88;;;2.78;;
71196;SDS011;58918;51.652;4.864;2022-10-13T13:20:26;13.18;;;3.92;;
71196;SDS011;58918;51.652;4.864;2022-10-13T13:22:53;8.05;;;3.40;;
71196;SDS011;58918;51.652;4.864;2022-10-13T13:25:21;6.63;;;3.40;;
71196;SDS011;58918;51.652;4.864;2022-10-13T13:27:48;9.65;;;3.53;;
71196;SDS011;58918;51.652;4.864;2022-10-13T13:30:17;8.15;;;3.40;;
71196;SDS011;58918;51.652;4.864;2022-10-13T13:32:44;7.50;;;3.22;;
71196;SDS011;58918;51.652;4.864;2022-10-13T13:35:12;7.70;;;3.50;;
71196;SDS011;58918;51.652;4.864;2022-10-13T13:37:40;9.20;;;3.35;;
71196;SDS011;58918;51.652;4.864;2022-10-13T13:40:13;8.65;;;3.25;;
71196;SDS011;58918;51.652;4.864;2022-10-13T13:42:40;9.70;;;3.42;;
71196;SDS011;58918;51.652;4.864;2022-10-13T13:45:11;8.57;;;3.10;;
71196;SDS011;58918;51.652;4.864;2022-10-13T13:47:38;9.60;;;3.45;;
71196;SDS011;58918;51.652;4.864;2022-10-13T13:50:15;7.00;;;3.08;;
71196;SDS011;58918;51.652;4.864;2022-10-13T13:52:43;9.00;;;3.33;;
71196;SDS011;58918;51.652;4.864;2022-10-13T13:55:10;6.85;;;3.85;;
71196;SDS011;58918;51.652;4.864;2022-10-13T13:57:37;8.40;;;3.45;;
71196;SDS011;58918;51.652;4.864;2022-10-13T14:00:05;10.23;;;3.80;;
71196;SDS011;58918;51.652;4.864;2022-10-13T14:02:32;6.07;;;3.33;;
71196;SDS011;58918;51.652;4.864;2022-10-13T14:04:59;12.93;;;3.75;;
71196;SDS011;58918;51.652;4.864;2022-10-13T14:07:26;9.70;;;4.03;;
71196;SDS011;58918;51.652;4.864;2022-10-13T14:09:53;7.07;;;3.25;;
71196;SDS011;58918;51.652;4.864;2022-10-13T14:12:28;8.52;;;3.90;;
71196;SDS011;58918;51.652;4.864;2022-10-13T14:14:55;10.68;;;4.32;;
71196;SDS011;58918;51.652;4.864;2022-10-13T14:17:24;8.43;;;3.97;;
71196;SDS011;58918;51.652;4.864;2022-10-13T14:19:51;8.27;;;4.28;;
71196;SDS011;58918;51.652;4.864;2022-10-13T14:22:18;10.68;;;4.35;;
71196;SDS011;58918;51.652;4.864;2022-10-13T14:24:46;9.68;;;4.20;;
71196;SDS011;58918;51.652;4.864;2022-10-13T14:27:13;9.07;;;4.13;;
71196;SDS011;58918;51.652;4.864;2022-10-13T14:29:41;8.20;;;4.25;;
71196;SDS011;58918;51.652;4.864;2022-10-13T14:32:08;10.25;;;4.30;;
71196;SDS011;58918;51.652;4.864;2022-10-13T14:34:35;8.43;;;4.40;;
71196;SDS011;58918;51.652;4.864;2022-10-13T14:37:02;8.85;;;4.40;;
71196;SDS011;58918;51.652;4.864;2022-10-13T14:39:29;10.43;;;4.22;;
71196;SDS011;58918;51.652;4.864;2022-10-13T14:41:56;8.77;;;4.82;;
71196;SDS011;58918;51.652;4.864;2022-10-13T14:44:23;11.00;;;4.88;;
71196;SDS011;58918;51.652;4.864;2022-10-13T14:46:51;8.63;;;4.63;;
71196;SDS011;58918;51.652;4.864;2022-10-13T14:49:18;8.40;;;5.13;;
71196;SDS011;58918;51.652;4.864;2022-10-13T14:51:45;13.35;;;5.85;;
71196;SDS011;58918;51.652;4.864;2022-10-13T14:54:12;10.07;;;5.22;;
71196;SDS011;58918;51.652;4.864;2022-10-13T14:56:39;12.27;;;5.47;;
71196;SDS011;58918;51.652;4.864;2022-10-13T14:59:06;10.73;;;5.45;;
71196;SDS011;58918;51.652;4.864;2022-10-13T15:01:33;8.50;;;5.45;;
71196;SDS011;58918;51.652;4.864;2022-10-13T15:04:01;11.43;;;6.25;;
71196;SDS011;58918;51.652;4.864;2022-10-13T15:06:28;9.80;;;5.25;;
71196;SDS011;58918;51.652;4.864;2022-10-13T15:08:55;15.15;;;7.00;;
71196;SDS011;58918;51.652;4.864;2022-10-13T15:11:23;13.77;;;6.82;;
71196;SDS011;58918;51.652;4.864;2022-10-13T15:13:50;13.48;;;6.32;;
71196;SDS011;58918;51.652;4.864;2022-10-13T15:16:19;11.90;;;6.57;;
71196;SDS011;58918;51.652;4.864;2022-10-13T15:18:47;15.02;;;7.38;;
71196;SDS011;58918;51.652;4.864;2022-10-13T15:21:14;10.60;;;6.57;;
71196;SDS011;58918;51.652;4.864;2022-10-13T15:23:41;13.20;;;7.32;;
71196;SDS011;58918;51.652;4.864;2022-10-13T15:26:09;15.10;;;6.78;;
71196;SDS011;58918;51.652;4.864;2022-10-13T15:28:39;11.95;;;6.30;;
71196;SDS011;58918;51.652;4.864;2022-10-13T15:31:06;11.13;;;6.10;;
71196;SDS011;58918;51.652;4.864;2022-10-13T15:33:33;12.13;;;6.80;;
71196;SDS011;58918;51.652;4.864;2022-10-13T15:36:00;11.18;;;6.63;;
71196;SDS011;58918;51.652;4.864;2022-10-13T15:38:28;12.43;;;6.57;;
71196;SDS011;58918;51.652;4.864;2022-10-13T15:40:59;10.18;;;6.43;;
71196;SDS011;58918;51.652;4.864;2022-10-13T15:43:26;10.43;;;5.95;;
71196;SDS011;58918;51.652;4.864;2022-10-13T15:46:15;11.95;;;6.30;;
71196;SDS011;58918;51.652;4.864;2022-10-13T15:48:47;9.60;;;5.93;;
71196;SDS011;58918;51.652;4.864;2022-10-13T15:51:15;10.85;;;5.95;;
71196;SDS011;58918;51.652;4.864;2022-10-13T15:53:43;10.25;;;5.85;;
71196;SDS011;58918;51.652;4.864;2022-10-13T15:56:10;11.35;;;6.20;;
71196;SDS011;58918;51.652;4.864;2022-10-13T15:58:37;12.02;;;5.82;;
71196;SDS011;58918;51.652;4.864;2022-10-13T16:01:08;11.32;;;6.07;;
71196;SDS011;58918;51.652;4.864;2022-10-13T16:03:36;8.20;;;5.50;;
71196;SDS011;58918;51.652;4.864;2022-10-13T16:06:04;12.20;;;5.97;;
71196;SDS011;58918;51.652;4.864;2022-10-13T16:08:38;10.70;;;5.60;;
71196;SDS011;58918;51.652;4.864;2022-10-13T16:11:09;10.75;;;5.75;;
71196;SDS011;58918;51.652;4.864;2022-10-13T16:13:37;11.18;;;5.43;;
71196;SDS011;58918;51.652;4.864;2022-10-13T16:16:04;10.82;;;5.78;;
71196;SDS011;58918;51.652;4.864;2022-10-13T16:18:33;10.73;;;5.80;;
71196;SDS011;58918;51.652;4.864;2022-10-13T16:21:06;10.85;;;4.80;;
71196;SDS011;58918;51.652;4.864;2022-10-13T16:23:33;8.73;;;4.82;;
71196;SDS011;58918;51.652;4.864;2022-10-13T16:26:01;9.05;;;5.05;;
71196;SDS011;58918;51.652;4.864;2022-10-13T16:28:28;9.82;;;4.50;;
71196;SDS011;58918;51.652;4.864;2022-10-13T16:30:56;9.18;;;4.55;;
71196;SDS011;58918;51.652;4.864;2022-10-13T16:33:29;10.30;;;4.80;;
71196;SDS011;58918;51.652;4.864;2022-10-13T16:36:06;10.98;;;4.75;;
71196;SDS011;58918;51.652;4.864;2022-10-13T16:38:34;7.88;;;4.43;;
71196;SDS011;58918;51.652;4.864;2022-10-13T16:41:02;7.60;;;3.80;;
71196;SDS011;58918;51.652;4.864;2022-10-13T16:43:30;9.15;;;4.88;;
71196;SDS011;58918;51.652;4.864;2022-10-13T16:45:58;9.40;;;4.57;;
71196;SDS011;58918;51.652;4.864;2022-10-13T16:48:25;9.93;;;4.18;;